sensor_id;sensor_type;location;lat;lon;timestamp;pressure;altitude;pressure_sealevel;temperature;humidity
18527;BME280;9393;42.158;24.748;2023-04-19T00:02:25;99149.78;;;12.96;100.00
18527;BME280;9393;42.158;24.748;2023-04-19T00:05:31;99141.94;;;12.55;100.00
18527;BME280;9393;42.158;24.748;2023-04-19T00:08:35;99139.13;;;13.05;100.00
18527;BME280;9393;42.158;24.748;2023-04-19T00:11:39;99129.38;;;12.75;100.00
18527;BME280;9393;42.158;24.748;2023-04-19T00:14:43;99130.44;;;12.97;100.00
18527;BME280;9393;42.158;24.748;2023-04-19T00:17:46;99127.34;;;13.01;100.00
18527;BME280;9393;42.158;24.748;2023-04-19T00:20:51;99124.06;;;13.07;100.00
18527;BME280;9393;42.158;24.748;2023-04-19T00:23:55;99117.69;;;13.02;100.00
18527;BME280;9393;42.158;24.748;2023-04-19T00:26:59;99105.59;;;13.09;100.00
18527;BME280;9393;42.158;24.748;2023-04-19T00:30:04;99108.09;;;12.70;100.00
18527;BME280;9393;42.158;24.748;2023-04-19T00:33:08;99114.63;;;12.74;100.00
18527;BME280;9393;42.158;24.748;2023-04-19T00:36:15;99103.63;;;13.11;100.00
18527;BME280;9393;42.158;24.748;2023-04-19T00:39:21;99104.13;;;13.06;100.00
18527;BME280;9393;42.158;24.748;2023-04-19T00:42:24;99101.50;;;12.90;100.00
18527;BME280;9393;42.158;24.748;2023-04-19T00:45:28;99101.00;;;13.03;100.00
18527;BME280;9393;42.158;24.748;2023-04-19T00:48:32;99100.38;;;13.09;100.00
18527;BME280;9393;42.158;24.748;2023-04-19T00:51:38;99096.75;;;13.02;100.00
18527;BME280;9393;42.158;24.748;2023-04-19T00:54:42;99105.78;;;12.99;100.00
18527;BME280;9393;42.158;24.748;2023-04-19T00:57:47;99101.56;;;12.66;100.00
18527;BME280;9393;42.158;24.748;2023-04-19T01:00:53;99109.34;;;13.06;100.00
18527;BME280;9393;42.158;24.748;2023-04-19T01:03:57;99098.06;;;13.06;100.00
18527;BME280;9393;42.158;24.748;2023-04-19T01:07:02;99098.06;;;13.06;100.00
18527;BME280;9393;42.158;24.748;2023-04-19T01:10:06;99090.69;;;13.01;100.00
18527;BME280;9393;42.158;24.748;2023-04-19T01:13:09;99089.63;;;12.55;100.00
18527;BME280;9393;42.158;24.748;2023-04-19T01:16:13;99085.50;;;12.85;100.00
18527;BME280;9393;42.158;24.748;2023-04-19T01:19:17;99092.41;;;12.70;100.00
18527;BME280;9393;42.158;24.748;2023-04-19T01:22:22;99088.09;;;13.09;100.00
18527;BME280;9393;42.158;24.748;2023-04-19T01:25:25;99078.25;;;13.03;100.00
18527;BME280;9393;42.158;24.748;2023-04-19T01:28:29;99073.34;;;13.17;100.00
18527;BME280;9393;42.158;24.748;2023-04-19T01:31:33;99069.91;;;13.08;100.00
18527;BME280;9393;42.158;24.748;2023-04-19T01:34:38;99073.69;;;13.05;100.00
18527;BME280;9393;42.158;24.748;2023-04-19T01:37:43;99063.09;;;12.91;100.00
18527;BME280;9393;42.158;24.748;2023-04-19T01:40:46;99061.91;;;12.93;100.00
18527;BME280;9393;42.158;24.748;2023-04-19T01:43:50;99058.47;;;13.09;100.00
18527;BME280;9393;42.158;24.748;2023-04-19T01:46:53;99064.03;;;12.98;100.00
18527;BME280;9393;42.158;24.748;2023-04-19T01:49:57;99062.41;;;13.13;100.00
18527;BME280;9393;42.158;24.748;2023-04-19T01:53:02;99059.78;;;13.13;100.00
18527;BME280;9393;42.158;24.748;2023-04-19T01:56:06;99062.31;;;13.29;98.48
18527;BME280;9393;42.158;24.748;2023-04-19T01:59:11;99054.56;;;12.97;100.00
18527;BME280;9393;42.158;24.748;2023-04-19T02:02:14;99050.06;;;13.22;98.90
18527;BME280;9393;42.158;24.748;2023-04-19T02:05:18;99048.66;;;13.11;99.24
18527;BME280;9393;42.158;24.748;2023-04-19T02:08:23;99047.31;;;13.23;98.71
18527;BME280;9393;42.158;24.748;2023-04-19T02:11:27;99043.72;;;13.08;98.87
18527;BME280;9393;42.158;24.748;2023-04-19T02:14:31;99047.84;;;12.94;99.62
18527;BME280;9393;42.158;24.748;2023-04-19T02:17:34;99039.06;;;12.79;99.40
18527;BME280;9393;42.158;24.748;2023-04-19T02:20:38;99040.22;;;12.85;100.00
18527;BME280;9393;42.158;24.748;2023-04-19T02:23:43;99042.28;;;12.97;99.58
18527;BME280;9393;42.158;24.748;2023-04-19T02:26:46;99038.97;;;13.03;99.22
18527;BME280;9393;42.158;24.748;2023-04-19T02:29:50;99033.19;;;12.85;99.20
18527;BME280;9393;42.158;24.748;2023-04-19T02:32:53;99035.09;;;12.99;98.99
18527;BME280;9393;42.158;24.748;2023-04-19T02:35:57;99033.13;;;13.01;98.31
18527;BME280;9393;42.158;24.748;2023-04-19T02:39:02;99025.97;;;12.87;99.31
18527;BME280;9393;42.158;24.748;2023-04-19T02:42:06;99026.34;;;12.68;99.51
18527;BME280;9393;42.158;24.748;2023-04-19T02:45:10;99025.34;;;12.69;98.24
18527;BME280;9393;42.158;24.748;2023-04-19T02:48:14;99019.78;;;12.80;99.07
18527;BME280;9393;42.158;24.748;2023-04-19T02:51:17;99031.41;;;12.78;99.44
18527;BME280;9393;42.158;24.748;2023-04-19T02:54:22;99024.72;;;12.67;99.76
18527;BME280;9393;42.158;24.748;2023-04-19T02:57:27;99028.34;;;12.42;100.00
18527;BME280;9393;42.158;24.748;2023-04-19T03:00:30;99035.19;;;12.67;99.69
18527;BME280;9393;42.158;24.748;2023-04-19T03:03:40;99028.84;;;12.61;99.72
18527;BME280;9393;42.158;24.748;2023-04-19T03:06:44;99029.94;;;12.75;98.64
18527;BME280;9393;42.158;24.748;2023-04-19T03:09:49;99033.19;;;12.77;98.27
18527;BME280;9393;42.158;24.748;2023-04-19T03:12:54;99032.09;;;12.55;99.30
18527;BME280;9393;42.158;24.748;2023-04-19T03:15:57;99038.00;;;12.49;100.00
18527;BME280;9393;42.158;24.748;2023-04-19T03:19:03;99032.31;;;12.30;100.00
18527;BME280;9393;42.158;24.748;2023-04-19T03:22:12;99032.28;;;12.46;100.00
18527;BME280;9393;42.158;24.748;2023-04-19T03:25:18;99036.84;;;12.52;100.00
18527;BME280;9393;42.158;24.748;2023-04-19T03:28:29;99029.16;;;12.50;100.00
18527;BME280;9393;42.158;24.748;2023-04-19T03:31:50;99031.59;;;12.52;99.79
18527;BME280;9393;42.158;24.748;2023-04-19T03:34:54;99025.09;;;12.32;100.00
18527;BME280;9393;42.158;24.748;2023-04-19T03:37:57;99030.00;;;12.51;99.41
18527;BME280;9393;42.158;24.748;2023-04-19T03:41:02;99024.25;;;12.63;98.19
18527;BME280;9393;42.158;24.748;2023-04-19T03:44:11;99032.91;;;12.64;97.83
18527;BME280;9393;42.158;24.748;2023-04-19T03:47:17;99028.16;;;12.59;98.04
18527;BME280;9393;42.158;24.748;2023-04-19T03:50:23;99027.22;;;12.44;98.81
18527;BME280;9393;42.158;24.748;2023-04-19T03:53:30;99026.84;;;12.63;97.60
18527;BME280;9393;42.158;24.748;2023-04-19T03:56:35;99038.28;;;12.71;97.09
18527;BME280;9393;42.158;24.748;2023-04-19T03:59:40;99041.59;;;12.48;97.93
18527;BME280;9393;42.158;24.748;2023-04-19T04:02:44;99036.63;;;12.78;96.35
18527;BME280;9393;42.158;24.748;2023-04-19T04:05:48;99031.78;;;12.34;98.97
18527;BME280;9393;42.158;24.748;2023-04-19T04:08:52;99035.34;;;12.65;97.01
18527;BME280;9393;42.158;24.748;2023-04-19T04:11:57;99038.66;;;12.43;97.76
18527;BME280;9393;42.158;24.748;2023-04-19T04:15:01;99026.84;;;12.63;96.58
18527;BME280;9393;42.158;24.748;2023-04-19T04:18:08;99033.56;;;12.58;97.52
18527;BME280;9393;42.158;24.748;2023-04-19T04:21:12;99032.56;;;12.67;96.74
18527;BME280;9393;42.158;24.748;2023-04-19T04:24:19;99035.09;;;12.99;94.92
18527;BME280;9393;42.158;24.748;2023-04-19T04:28:01;99035.38;;;13.04;94.24
18527;BME280;9393;42.158;24.748;2023-04-19T04:31:05;99032.78;;;13.12;93.77
18527;BME280;9393;42.158;24.748;2023-04-19T04:34:09;99031.41;;;12.78;96.12
18527;BME280;9393;42.158;24.748;2023-04-19T04:37:23;99029.16;;;13.13;93.46
18527;BME280;9393;42.158;24.748;2023-04-19T04:40:27;99038.34;;;13.01;93.62
18527;BME280;9393;42.158;24.748;2023-04-19T04:43:32;99044.75;;;12.99;92.19
18527;BME280;9393;42.158;24.748;2023-04-19T04:46:36;99041.75;;;13.18;92.68
18527;BME280;9393;42.158;24.748;2023-04-19T04:49:40;99040.94;;;13.18;92.04
18527;BME280;9393;42.158;24.748;2023-04-19T04:52:44;99046.34;;;13.08;93.35
18527;BME280;9393;42.158;24.748;2023-04-19T04:55:56;99042.66;;;13.33;91.80
18527;BME280;9393;42.158;24.748;2023-04-19T04:59:01;99046.97;;;13.26;91.86
18527;BME280;9393;42.158;24.748;2023-04-19T05:02:11;99042.06;;;13.23;91.77
18527;BME280;9393;42.158;24.748;2023-04-19T05:05:15;99046.13;;;13.26;92.11
18527;BME280;9393;42.158;24.748;2023-04-19T05:08:19;99044.50;;;13.25;92.60
18527;BME280;9393;42.158;24.748;2023-04-19T05:11:23;99047.06;;;13.41;90.82
18527;BME280;9393;42.158;24.748;2023-04-19T05:14:29;99040.81;;;13.42;89.89
18527;BME280;9393;42.158;24.748;2023-04-19T05:17:33;99048.16;;;13.46;90.06
18527;BME280;9393;42.158;24.748;2023-04-19T05:20:37;99038.19;;;13.42;90.66
18527;BME280;9393;42.158;24.748;2023-04-19T05:23:51;99039.25;;;13.55;89.96
18527;BME280;9393;42.158;24.748;2023-04-19T05:26:57;99046.19;;;13.48;90.23
18527;BME280;9393;42.158;24.748;2023-04-19T05:30:02;99048.84;;;13.71;89.45
18527;BME280;9393;42.158;24.748;2023-04-19T05:33:08;99050.19;;;13.67;88.92
18527;BME280;9393;42.158;24.748;2023-04-19T05:36:12;99045.16;;;13.57;89.26
18527;BME280;9393;42.158;24.748;2023-04-19T05:39:16;99046.38;;;13.70;88.72
18527;BME280;9393;42.158;24.748;2023-04-19T05:42:20;99048.97;;;13.78;88.14
18527;BME280;9393;42.158;24.748;2023-04-19T05:45:25;99053.16;;;13.87;88.04
18527;BME280;9393;42.158;24.748;2023-04-19T05:48:29;99048.41;;;13.59;88.28
18527;BME280;9393;42.158;24.748;2023-04-19T05:51:55;99054.38;;;13.76;88.37
18527;BME280;9393;42.158;24.748;2023-04-19T05:55:21;99052.47;;;13.62;88.85
18527;BME280;9393;42.158;24.748;2023-04-19T05:58:25;99055.22;;;13.99;86.67
18527;BME280;9393;42.158;24.748;2023-04-19T06:01:30;99051.66;;;13.92;86.92
18527;BME280;9393;42.158;24.748;2023-04-19T06:04:34;99047.34;;;13.99;86.62
18527;BME280;9393;42.158;24.748;2023-04-19T06:07:39;99051.31;;;13.95;86.04
18527;BME280;9393;42.158;24.748;2023-04-19T06:10:55;99045.66;;;14.06;85.28
18527;BME280;9393;42.158;24.748;2023-04-19T06:14:09;99048.28;;;14.06;85.89
18527;BME280;9393;42.158;24.748;2023-04-19T06:17:15;99048.88;;;14.31;85.65
18527;BME280;9393;42.158;24.748;2023-04-19T06:20:24;99047.06;;;14.32;85.26
18527;BME280;9393;42.158;24.748;2023-04-19T06:23:28;99045.88;;;14.57;83.74
18527;BME280;9393;42.158;24.748;2023-04-19T06:26:32;99047.13;;;14.46;84.50
18527;BME280;9393;42.158;24.748;2023-04-19T06:29:35;99044.91;;;14.58;81.97
18527;BME280;9393;42.158;24.748;2023-04-19T06:32:40;99047.44;;;14.81;81.80
18527;BME280;9393;42.158;24.748;2023-04-19T06:35:44;99045.19;;;14.78;81.55
18527;BME280;9393;42.158;24.748;2023-04-19T06:38:48;99048.19;;;14.75;81.50
18527;BME280;9393;42.158;24.748;2023-04-19T06:41:52;99052.88;;;14.94;80.37
18527;BME280;9393;42.158;24.748;2023-04-19T06:44:56;99052.31;;;15.28;78.52
18527;BME280;9393;42.158;24.748;2023-04-19T06:48:01;99062.34;;;15.68;77.09
18527;BME280;9393;42.158;24.748;2023-04-19T06:51:05;99064.25;;;15.59;76.85
18527;BME280;9393;42.158;24.748;2023-04-19T06:54:09;99061.16;;;15.56;76.85
18527;BME280;9393;42.158;24.748;2023-04-19T06:57:13;99070.13;;;15.47;77.02
18527;BME280;9393;42.158;24.748;2023-04-19T07:00:17;99061.16;;;15.56;76.47
18527;BME280;9393;42.158;24.748;2023-04-19T07:03:22;99065.97;;;15.88;75.80
18527;BME280;9393;42.158;24.748;2023-04-19T07:06:26;99067.03;;;15.94;75.80
18527;BME280;9393;42.158;24.748;2023-04-19T07:09:30;99070.56;;;16.50;72.66
18527;BME280;9393;42.158;24.748;2023-04-19T07:12:34;99074.28;;;16.83;70.32
18527;BME280;9393;42.158;24.748;2023-04-19T07:15:38;99070.97;;;17.02;69.24
18527;BME280;9393;42.158;24.748;2023-04-19T07:18:43;99076.41;;;17.42;68.98
18527;BME280;9393;42.158;24.748;2023-04-19T07:21:47;99074.66;;;17.14;69.44
18527;BME280;9393;42.158;24.748;2023-04-19T07:24:51;99067.16;;;17.11;69.22
18527;BME280;9393;42.158;24.748;2023-04-19T07:27:55;99069.16;;;17.03;69.26
18527;BME280;9393;42.158;24.748;2023-04-19T07:30:58;99077.59;;;17.33;68.26
18527;BME280;9393;42.158;24.748;2023-04-19T07:34:04;99075.66;;;17.48;67.59
18527;BME280;9393;42.158;24.748;2023-04-19T07:37:08;99071.75;;;17.37;67.46
18527;BME280;9393;42.158;24.748;2023-04-19T07:40:12;99076.69;;;17.12;69.00
18527;BME280;9393;42.158;24.748;2023-04-19T07:43:16;99080.19;;;16.85;68.41
18527;BME280;9393;42.158;24.748;2023-04-19T07:46:19;99089.84;;;17.47;66.67
18527;BME280;9393;42.158;24.748;2023-04-19T07:49:25;99088.13;;;17.26;67.65
18527;BME280;9393;42.158;24.748;2023-04-19T07:52:28;99088.50;;;17.64;66.79
18527;BME280;9393;42.158;24.748;2023-04-19T07:55:32;99081.44;;;17.71;65.67
18527;BME280;9393;42.158;24.748;2023-04-19T07:58:37;99086.72;;;17.78;65.06
18527;BME280;9393;42.158;24.748;2023-04-19T08:01:42;99087.63;;;18.24;65.13
18527;BME280;9393;42.158;24.748;2023-04-19T08:04:48;99085.63;;;18.65;62.77
18527;BME280;9393;42.158;24.748;2023-04-19T08:07:53;99093.94;;;18.43;63.86
18527;BME280;9393;42.158;24.748;2023-04-19T08:10:58;99094.94;;;18.35;62.40
18527;BME280;9393;42.158;24.748;2023-04-19T08:14:03;99092.47;;;18.01;62.39
18527;BME280;9393;42.158;24.748;2023-04-19T08:17:27;99079.25;;;17.88;63.42
18527;BME280;9393;42.158;24.748;2023-04-19T08:20:44;99090.47;;;18.09;62.35
18527;BME280;9393;42.158;24.748;2023-04-19T08:23:48;99090.88;;;18.06;62.07
18527;BME280;9393;42.158;24.748;2023-04-19T08:26:55;99088.66;;;18.10;63.23
18527;BME280;9393;42.158;24.748;2023-04-19T08:30:01;99086.22;;;18.28;62.50
18527;BME280;9393;42.158;24.748;2023-04-19T08:33:05;99078.28;;;18.28;60.73
18527;BME280;9393;42.158;24.748;2023-04-19T08:36:11;99085.59;;;18.98;60.03
18527;BME280;9393;42.158;24.748;2023-04-19T08:39:20;99082.78;;;18.47;60.26
18527;BME280;9393;42.158;24.748;2023-04-19T08:42:34;99078.72;;;18.71;61.20
18527;BME280;9393;42.158;24.748;2023-04-19T08:45:38;99070.19;;;18.69;60.70
18527;BME280;9393;42.158;24.748;2023-04-19T08:48:43;99075.41;;;19.08;58.84
18527;BME280;9393;42.158;24.748;2023-04-19T08:51:49;99068.50;;;19.72;58.69
18527;BME280;9393;42.158;24.748;2023-04-19T08:54:54;99066.59;;;19.85;57.37
18527;BME280;9393;42.158;24.748;2023-04-19T08:57:58;99072.09;;;19.33;57.06
18527;BME280;9393;42.158;24.748;2023-04-19T09:01:07;99070.56;;;18.99;57.34
18527;BME280;9393;42.158;24.748;2023-04-19T09:04:27;99059.84;;;19.45;57.18
18527;BME280;9393;42.158;24.748;2023-04-19T09:07:40;99070.59;;;19.56;56.79
18527;BME280;9393;42.158;24.748;2023-04-19T09:10:51;99059.97;;;19.63;56.22
18527;BME280;9393;42.158;24.748;2023-04-19T09:14:06;99069.75;;;18.92;57.02
18527;BME280;9393;42.158;24.748;2023-04-19T09:17:11;99069.19;;;18.57;57.95
18527;BME280;9393;42.158;24.748;2023-04-19T09:20:34;99072.56;;;18.97;57.11
18527;BME280;9393;42.158;24.748;2023-04-19T09:23:45;99068.16;;;18.71;57.77
18527;BME280;9393;42.158;24.748;2023-04-19T09:26:53;99069.41;;;18.69;58.33
18527;BME280;9393;42.158;24.748;2023-04-19T09:30:00;99066.50;;;18.90;58.43
18527;BME280;9393;42.158;24.748;2023-04-19T09:33:04;99071.56;;;19.04;57.86
18527;BME280;9393;42.158;24.748;2023-04-19T09:36:08;99066.75;;;19.39;57.93
18527;BME280;9393;42.158;24.748;2023-04-19T09:39:27;99067.25;;;19.23;57.76
18527;BME280;9393;42.158;24.748;2023-04-19T09:42:43;99056.97;;;19.53;56.00
18527;BME280;9393;42.158;24.748;2023-04-19T09:45:50;99053.78;;;19.82;56.12
18527;BME280;9393;42.158;24.748;2023-04-19T09:48:54;99055.34;;;20.71;54.19
18527;BME280;9393;42.158;24.748;2023-04-19T09:52:02;99050.94;;;21.26;52.63
18527;BME280;9393;42.158;24.748;2023-04-19T09:55:08;99049.09;;;20.83;51.12
18527;BME280;9393;42.158;24.748;2023-04-19T09:58:26;99047.00;;;20.92;51.52
18527;BME280;9393;42.158;24.748;2023-04-19T10:01:53;99048.44;;;21.60;48.96
18527;BME280;9393;42.158;24.748;2023-04-19T10:04:57;99034.88;;;22.10;49.90
18527;BME280;9393;42.158;24.748;2023-04-19T10:08:21;99034.63;;;22.00;48.86
18527;BME280;9393;42.158;24.748;2023-04-19T10:11:30;99036.03;;;21.43;48.87
18527;BME280;9393;42.158;24.748;2023-04-19T10:14:38;99021.34;;;20.67;50.80
18527;BME280;9393;42.158;24.748;2023-04-19T10:17:43;99026.16;;;21.13;51.68
18527;BME280;9393;42.158;24.748;2023-04-19T10:20:50;99027.72;;;21.03;51.78
18527;BME280;9393;42.158;24.748;2023-04-19T10:23:56;99021.94;;;20.70;51.80
18527;BME280;9393;42.158;24.748;2023-04-19T10:27:11;99012.19;;;21.06;50.83
18527;BME280;9393;42.158;24.748;2023-04-19T10:30:17;99017.84;;;19.99;53.41
18527;BME280;9393;42.158;24.748;2023-04-19T10:33:26;99008.09;;;19.93;54.20
18527;BME280;9393;42.158;24.748;2023-04-19T10:36:31;99008.91;;;20.68;53.60
18527;BME280;9393;42.158;24.748;2023-04-19T10:39:42;99005.16;;;20.94;52.05
18527;BME280;9393;42.158;24.748;2023-04-19T10:43:17;99002.63;;;20.44;51.89
18527;BME280;9393;42.158;24.748;2023-04-19T10:46:35;98998.06;;;20.51;51.72
18527;BME280;9393;42.158;24.748;2023-04-19T10:49:44;99001.75;;;20.50;51.22
18527;BME280;9393;42.158;24.748;2023-04-19T10:52:48;98994.78;;;21.29;48.41
18527;BME280;9393;42.158;24.748;2023-04-19T10:55:52;98995.13;;;21.50;48.11
18527;BME280;9393;42.158;24.748;2023-04-19T10:59:13;98997.09;;;21.96;46.01
18527;BME280;9393;42.158;24.748;2023-04-19T11:02:27;98998.00;;;21.31;47.76
18527;BME280;9393;42.158;24.748;2023-04-19T11:09:30;98993.66;;;22.07;46.86
18527;BME280;9393;42.158;24.748;2023-04-19T11:12:35;98984.25;;;21.22;47.63
18527;BME280;9393;42.158;24.748;2023-04-19T11:15:43;98983.16;;;21.30;47.76
18527;BME280;9393;42.158;24.748;2023-04-19T11:18:47;98989.94;;;21.26;48.52
18527;BME280;9393;42.158;24.748;2023-04-19T11:21:51;98985.72;;;21.18;48.20
18527;BME280;9393;42.158;24.748;2023-04-19T11:24:54;98973.44;;;20.69;48.68
18527;BME280;9393;42.158;24.748;2023-04-19T11:27:59;98980.94;;;20.54;49.80
18527;BME280;9393;42.158;24.748;2023-04-19T11:31:04;98981.09;;;20.34;50.88
18527;BME280;9393;42.158;24.748;2023-04-19T11:34:08;98977.22;;;20.37;50.95
18527;BME280;9393;42.158;24.748;2023-04-19T11:37:12;98975.88;;;20.28;50.89
18527;BME280;9393;42.158;24.748;2023-04-19T11:40:17;98967.75;;;20.23;51.10
18527;BME280;9393;42.158;24.748;2023-04-19T11:43:21;98970.09;;;20.12;52.10
18527;BME280;9393;42.158;24.748;2023-04-19T11:46:26;98978.53;;;19.96;52.91
18527;BME280;9393;42.158;24.748;2023-04-19T11:49:31;98972.78;;;19.81;52.68
18527;BME280;9393;42.158;24.748;2023-04-19T11:52:35;98981.47;;;19.88;52.63
18527;BME280;9393;42.158;24.748;2023-04-19T11:55:41;98978.09;;;19.43;53.71
18527;BME280;9393;42.158;24.748;2023-04-19T11:58:46;98976.84;;;19.46;53.24
18527;BME280;9393;42.158;24.748;2023-04-19T12:01:51;98975.16;;;19.20;57.73
18527;BME280;9393;42.158;24.748;2023-04-19T12:04:55;98985.50;;;19.22;58.57
18527;BME280;9393;42.158;24.748;2023-04-19T12:08:09;98986.34;;;19.15;58.76
18527;BME280;9393;42.158;24.748;2023-04-19T12:11:14;99001.47;;;18.89;60.81
18527;BME280;9393;42.158;24.748;2023-04-19T12:14:18;98998.88;;;18.69;62.32
18527;BME280;9393;42.158;24.748;2023-04-19T12:17:26;99014.72;;;18.03;64.54
18527;BME280;9393;42.158;24.748;2023-04-19T12:20:33;99005.88;;;17.37;68.05
18527;BME280;9393;42.158;24.748;2023-04-19T12:23:37;99009.59;;;17.08;71.74
18527;BME280;9393;42.158;24.748;2023-04-19T12:26:51;99009.72;;;16.94;74.77
18527;BME280;9393;42.158;24.748;2023-04-19T12:29:57;99002.25;;;16.63;78.84
18527;BME280;9393;42.158;24.748;2023-04-19T12:33:03;99003.25;;;16.62;81.58
18527;BME280;9393;42.158;24.748;2023-04-19T12:36:07;99007.03;;;16.53;81.57
18527;BME280;9393;42.158;24.748;2023-04-19T12:39:11;99009.34;;;16.41;86.00
18527;BME280;9393;42.158;24.748;2023-04-19T12:42:15;98994.44;;;16.48;86.41
18527;BME280;9393;42.158;24.748;2023-04-19T12:45:19;98995.94;;;16.30;88.49
18527;BME280;9393;42.158;24.748;2023-04-19T12:48:25;98993.44;;;16.22;89.83
18527;BME280;9393;42.158;24.748;2023-04-19T12:51:29;98997.50;;;16.24;90.07
18527;BME280;9393;42.158;24.748;2023-04-19T12:54:33;98997.78;;;16.98;87.15
18527;BME280;9393;42.158;24.748;2023-04-19T12:57:37;98993.59;;;17.57;85.95
18527;BME280;9393;42.158;24.748;2023-04-19T13:00:40;98990.53;;;17.60;85.17
18527;BME280;9393;42.158;24.748;2023-04-19T13:03:45;98989.91;;;17.58;84.48
18527;BME280;9393;42.158;24.748;2023-04-19T13:06:50;99000.41;;;17.52;83.08
18527;BME280;9393;42.158;24.748;2023-04-19T13:09:53;98989.72;;;17.60;83.61
18527;BME280;9393;42.158;24.748;2023-04-19T13:12:58;98991.78;;;17.78;83.35
18527;BME280;9393;42.158;24.748;2023-04-19T13:16:01;99000.72;;;17.90;82.25
18527;BME280;9393;42.158;24.748;2023-04-19T13:19:07;99003.16;;;17.85;79.99
18527;BME280;9393;42.158;24.748;2023-04-19T13:22:10;99007.19;;;17.74;81.10
18527;BME280;9393;42.158;24.748;2023-04-19T13:25:14;98992.97;;;17.62;82.57
18527;BME280;9393;42.158;24.748;2023-04-19T13:28:18;98989.31;;;17.70;78.22
18527;BME280;9393;42.158;24.748;2023-04-19T13:31:22;98986.03;;;17.48;77.27
18527;BME280;9393;42.158;24.748;2023-04-19T13:34:27;98978.31;;;17.46;78.71
18527;BME280;9393;42.158;24.748;2023-04-19T13:37:31;98968.03;;;17.10;79.96
18527;BME280;9393;42.158;24.748;2023-04-19T13:40:35;98973.91;;;16.99;79.62
18527;BME280;9393;42.158;24.748;2023-04-19T13:43:38;98974.56;;;17.14;78.93
18527;BME280;9393;42.158;24.748;2023-04-19T13:46:42;98976.59;;;17.19;76.54
18527;BME280;9393;42.158;24.748;2023-04-19T13:49:47;98966.88;;;17.13;78.24
18527;BME280;9393;42.158;24.748;2023-04-19T13:52:53;98978.03;;;17.22;76.00
18527;BME280;9393;42.158;24.748;2023-04-19T13:55:57;98976.38;;;17.14;74.66
18527;BME280;9393;42.158;24.748;2023-04-19T13:59:01;98980.19;;;17.05;74.47
18527;BME280;9393;42.158;24.748;2023-04-19T14:02:05;98984.56;;;17.39;72.94
18527;BME280;9393;42.158;24.748;2023-04-19T14:05:10;98982.16;;;17.44;70.67
18527;BME280;9393;42.158;24.748;2023-04-19T14:08:14;98985.81;;;17.49;69.55
18527;BME280;9393;42.158;24.748;2023-04-19T14:11:18;98983.09;;;17.16;73.43
18527;BME280;9393;42.158;24.748;2023-04-19T14:14:22;98987.53;;;17.16;74.39
18527;BME280;9393;42.158;24.748;2023-04-19T14:17:25;98986.16;;;17.20;76.31
18527;BME280;9393;42.158;24.748;2023-04-19T14:20:30;98985.59;;;16.90;77.71
18527;BME280;9393;42.158;24.748;2023-04-19T14:23:34;98992.72;;;16.96;79.71
18527;BME280;9393;42.158;24.748;2023-04-19T14:26:38;98992.09;;;16.94;79.68
18527;BME280;9393;42.158;24.748;2023-04-19T14:29:42;98991.66;;;16.84;81.15
18527;BME280;9393;42.158;24.748;2023-04-19T14:32:45;99001.59;;;17.36;79.47
18527;BME280;9393;42.158;24.748;2023-04-19T14:35:51;99004.75;;;17.73;77.66
18527;BME280;9393;42.158;24.748;2023-04-19T14:38:54;98990.34;;;17.14;79.38
18527;BME280;9393;42.158;24.748;2023-04-19T14:41:58;98999.16;;;16.87;79.60
18527;BME280;9393;42.158;24.748;2023-04-19T14:45:02;98995.28;;;16.83;80.36
18527;BME280;9393;42.158;24.748;2023-04-19T14:48:06;99008.94;;;17.00;78.34
18527;BME280;9393;42.158;24.748;2023-04-19T14:51:11;99009.53;;;16.95;78.34
18527;BME280;9393;42.158;24.748;2023-04-19T14:54:15;99003.91;;;17.59;76.50
18527;BME280;9393;42.158;24.748;2023-04-19T14:57:19;99010.44;;;17.70;74.65
18527;BME280;9393;42.158;24.748;2023-04-19T15:00:22;98999.94;;;17.96;73.72
18527;BME280;9393;42.158;24.748;2023-04-19T15:03:26;99023.03;;;18.00;73.59
18527;BME280;9393;42.158;24.748;2023-04-19T15:06:31;99001.91;;;17.74;73.02
18527;BME280;9393;42.158;24.748;2023-04-19T15:09:35;99007.19;;;17.74;72.60
18527;BME280;9393;42.158;24.748;2023-04-19T15:12:39;99004.81;;;17.99;72.06
18527;BME280;9393;42.158;24.748;2023-04-19T15:15:43;99011.50;;;17.95;71.48
18527;BME280;9393;42.158;24.748;2023-04-19T15:18:47;99008.00;;;17.61;71.39
18527;BME280;9393;42.158;24.748;2023-04-19T15:21:52;99008.41;;;17.72;72.21
18527;BME280;9393;42.158;24.748;2023-04-19T15:24:55;99006.00;;;17.90;72.34
18527;BME280;9393;42.158;24.748;2023-04-19T15:27:59;98997.16;;;17.50;75.15
18527;BME280;9393;42.158;24.748;2023-04-19T15:31:04;99000.38;;;16.85;78.27
18527;BME280;9393;42.158;24.748;2023-04-19T15:34:08;99003.16;;;16.49;80.25
18527;BME280;9393;42.158;24.748;2023-04-19T15:37:14;99001.75;;;16.53;80.75
18527;BME280;9393;42.158;24.748;2023-04-19T15:40:18;98999.22;;;16.38;80.21
18527;BME280;9393;42.158;24.748;2023-04-19T15:43:23;99007.09;;;16.59;79.48
18527;BME280;9393;42.158;24.748;2023-04-19T15:46:28;99003.78;;;16.51;78.53
18527;BME280;9393;42.158;24.748;2023-04-19T15:49:32;99007.38;;;16.43;77.14
18527;BME280;9393;42.158;24.748;2023-04-19T15:52:37;99012.19;;;16.40;76.32
18527;BME280;9393;42.158;24.748;2023-04-19T15:55:41;99012.19;;;16.40;75.55
18527;BME280;9393;42.158;24.748;2023-04-19T15:58:45;99016.00;;;16.31;73.11
18527;BME280;9393;42.158;24.748;2023-04-19T16:01:49;99018.06;;;16.42;71.77
18527;BME280;9393;42.158;24.748;2023-04-19T16:04:53;99015.06;;;16.45;70.15
18527;BME280;9393;42.158;24.748;2023-04-19T16:08:02;99015.22;;;16.37;71.04
18527;BME280;9393;42.158;24.748;2023-04-19T16:11:06;99015.91;;;16.24;71.14
18527;BME280;9393;42.158;24.748;2023-04-19T16:14:10;99014.47;;;16.22;71.38
18527;BME280;9393;42.158;24.748;2023-04-19T16:17:14;99018.88;;;16.42;70.84
18527;BME280;9393;42.158;24.748;2023-04-19T16:20:18;99021.03;;;16.32;70.94
18527;BME280;9393;42.158;24.748;2023-04-19T16:23:24;99034.25;;;16.39;70.81
18527;BME280;9393;42.158;24.748;2023-04-19T16:26:28;99029.50;;;16.28;71.46